DAOI

Ech Cheliff Airport

Algeria
TAF DAOI 210500Z 2106/2206 VRB02KT 9999 FEW026 SCT233 BECMG 2109/2112 29008KT BECMG 2116/2119 VRB02KT
Issued Valid From Valid To
Jul-21 @ 05:00 UTC
(5 hours ago)
Jul-21 @ 06:00 UTC
(4 hours ago)
Jul-22 @ 06:00 UTC
(in 20 hours)
Expired Click to View Jul-21 @ 06:00 to Jul-21 @ 09:00
TAF DAOI 210500Z 2106/2206 VRB02KT 9999 FEW026 SCT233
Wind Visibility Clouds
Variable at 2 knots 10,000+ meters
  • Few at 2,600' AGL
  • Scattered at 23,300' AGL
Becoming Jul-21 @ 09:00 to Jul-21 @ 16:00
BECMG 2109/2112 29008KT
Wind Visibility Clouds
290° at 8 knots 10,000+ meters
  • Few at 2,600' AGL
  • Scattered at 23,300' AGL
Becoming Jul-21 @ 16:00 to Jul-22 @ 06:00
BECMG 2116/2119 VRB02KT
Wind Visibility Clouds
Variable at 2 knots 10,000+ meters
  • Few at 2,600' AGL
  • Scattered at 23,300' AGL
TAF DAOI 210500Z 2106/2206 VRB02KT 9999 FEW026 SCT233 BECMG 2109/2112 29008KT BECMG 2116/2119 VRB02KT
Issued Jul-21 @ 05:00 UTC
(5 hours ago)
Valid From Jul-21 @ 06:00 UTC
(4 hours ago)
Valid To Jul-22 @ 06:00 UTC
(in 20 hours)
Jul-21 @ 06:00 - Jul-21 @ 09:00
Wind Visibility
Variable at 2 knots 10,000+ meters
Clouds
  • Few at 2,600' AGL
  • Scattered at 23,300' AGL
Becoming Jul-21 @ 09:00 - Jul-21 @ 16:00
Wind Visibility
290° at 8 knots 10,000+ meters
Clouds
  • Few at 2,600' AGL
  • Scattered at 23,300' AGL
Becoming Jul-21 @ 16:00 - Jul-22 @ 06:00
Wind Visibility
Variable at 2 knots 10,000+ meters
Clouds
  • Few at 2,600' AGL
  • Scattered at 23,300' AGL